Time;durP1;ratioP1;P1;durP2;ratioP2;P2;SDS_P1;SDS_P2;PMS_P1;PMS_P2;Temp;Humidity;BMP_temperature;BMP_pressure;BME280_temperature;BME280_humidity;BME280_pressure;Samples;Min_cycle;Max_cycle;Signal;HPM_P1;HPM_P2
2023/04/16 00:00:22;;;;;;;49.22;26.15;;;7.60;99.90;;;;;;5049199;28;20421;-66
2023/04/16 00:02:49;;;;;;;66.97;28.30;;;7.50;99.90;;;;;;5053726;28;20413;-65
2023/04/16 00:05:15;;;;;;;55.17;27.80;;;7.60;99.90;;;;;;5053582;28;20409;-65
2023/04/16 00:07:42;;;;;;;63.67;30.58;;;7.60;99.90;;;;;;5053183;28;20475;-65
2023/04/16 00:10:09;;;;;;;59.88;28.20;;;7.60;99.90;;;;;;5046100;28;20431;-65
2023/04/16 00:12:36;;;;;;;57.67;27.40;;;7.60;99.90;;;;;;5053307;28;20417;-65
2023/04/16 00:15:04;;;;;;;52.78;26.90;;;7.60;99.90;;;;;;5048742;28;20423;-65
2023/04/16 00:17:31;;;;;;;51.80;25.92;;;7.70;99.90;;;;;;5053312;28;20698;-64
2023/04/16 00:19:57;;;;;;;51.58;27.15;;;7.60;99.90;;;;;;5053212;28;20896;-64
2023/04/16 00:22:24;;;;;;;51.78;27.52;;;7.60;99.90;;;;;;5053179;28;20409;-65
2023/04/16 00:24:51;;;;;;;55.38;27.45;;;7.60;99.90;;;;;;5047309;28;20413;-63
2023/04/16 00:27:18;;;;;;;60.83;29.13;;;7.70;99.90;;;;;;5053247;28;20780;-64
2023/04/16 00:29:45;;;;;;;52.17;28.05;;;7.70;99.90;;;;;;5049353;28;20462;-64
2023/04/16 00:32:13;;;;;;;59.25;29.10;;;7.60;99.90;;;;;;5053560;28;20470;-64
2023/04/16 00:34:40;;;;;;;56.88;30.42;;;7.70;99.90;;;;;;5053994;28;20425;-67
2023/04/16 00:37:06;;;;;;;65.30;31.23;;;7.70;99.90;;;;;;5053082;28;20799;-65
2023/04/16 00:39:33;;;;;;;60.70;31.02;;;7.60;99.90;;;;;;5049596;28;20419;-65
2023/04/16 00:42:00;;;;;;;66.00;32.10;;;7.60;99.90;;;;;;5053008;28;20476;-63
2023/04/16 00:44:28;;;;;;;56.28;31.52;;;7.70;99.90;;;;;;5053201;28;20440;-65
2023/04/16 00:46:55;;;;;;;53.20;30.08;;;7.70;99.90;;;;;;5048268;28;20481;-64
2023/04/16 00:49:24;;;;;;;57.37;31.40;;;7.60;99.90;;;;;;5052748;28;20538;-64
2023/04/16 00:51:51;;;;;;;56.88;30.23;;;7.80;99.90;;;;;;5052391;28;20445;-65
2023/04/16 00:54:17;;;;;;;54.97;29.50;;;7.70;99.90;;;;;;5050423;28;20413;-65
2023/04/16 00:56:44;;;;;;;51.90;29.67;;;7.70;99.90;;;;;;5050295;28;20741;-64
2023/04/16 00:59:11;;;;;;;58.42;31.02;;;7.70;99.90;;;;;;5051792;28;20830;-65
2023/04/16 01:01:38;;;;;;;62.28;33.05;;;7.70;99.90;;;;;;5048650;28;20872;-65
2023/04/16 01:04:06;;;;;;;60.28;33.38;;;7.70;99.90;;;;;;5052689;28;20416;-64
2023/04/16 01:06:34;;;;;;;56.42;32.67;;;7.70;99.90;;;;;;5052696;28;20447;-64
2023/04/16 01:09:00;;;;;;;58.63;33.35;;;7.70;99.90;;;;;;5051812;28;20783;-63
2023/04/16 01:11:27;;;;;;;59.93;32.63;;;7.70;99.90;;;;;;5046601;28;20503;-65
2023/04/16 01:13:54;;;;;;;58.17;33.75;;;7.70;99.90;;;;;;5052217;28;20413;-65
2023/04/16 01:16:20;;;;;;;66.38;35.38;;;7.80;99.90;;;;;;5047465;28;20448;-65
2023/04/16 01:18:47;;;;;;;66.60;35.67;;;7.70;99.90;;;;;;5052116;28;20414;-66
2023/04/16 01:21:15;;;;;;;65.50;36.05;;;7.80;99.90;;;;;;5049452;28;20472;-66
2023/04/16 01:23:42;;;;;;;74.95;36.15;;;7.90;99.90;;;;;;5049997;28;20421;-66
2023/04/16 01:26:08;;;;;;;70.20;36.85;;;7.90;99.90;;;;;;5049364;28;20471;-65
2023/04/16 01:28:35;;;;;;;64.72;36.15;;;7.90;99.90;;;;;;5051940;28;20483;-65
2023/04/16 01:31:02;;;;;;;64.95;35.08;;;7.90;99.90;;;;;;5047650;28;20429;-66
2023/04/16 01:33:28;;;;;;;59.20;33.63;;;7.90;99.90;;;;;;5048041;28;20416;-65
2023/04/16 01:35:55;;;;;;;60.03;33.17;;;8.00;99.90;;;;;;5051707;28;20535;-64
2023/04/16 01:38:23;;;;;;;60.60;32.13;;;8.00;99.90;;;;;;5051478;28;20417;-65
2023/04/16 01:40:50;;;;;;;60.40;33.92;;;7.90;99.90;;;;;;5049961;28;20473;-65
2023/04/16 01:43:16;;;;;;;64.80;34.00;;;7.80;99.90;;;;;;5051717;28;20406;-66
2023/04/16 01:45:43;;;;;;;69.22;34.15;;;7.80;99.90;;;;;;5047394;28;20421;-65
2023/04/16 01:48:09;;;;;;;60.80;33.40;;;7.80;99.90;;;;;;5051484;28;20417;-65
2023/04/16 01:50:36;;;;;;;61.35;30.75;;;7.80;99.90;;;;;;5050361;28;20434;-65
2023/04/16 01:53:03;;;;;;;61.95;31.98;;;7.90;99.90;;;;;;5051604;28;20459;-66
2023/04/16 01:55:32;;;;;;;57.47;31.85;;;7.90;99.90;;;;;;5050331;28;20424;-66
2023/04/16 01:57:58;;;;;;;64.15;33.97;;;7.80;99.90;;;;;;5051116;28;20417;-66
2023/04/16 02:00:25;;;;;;;60.67;33.92;;;7.90;99.90;;;;;;5047366;28;20420;-65
2023/04/16 02:02:52;;;;;;;63.38;33.42;;;7.90;99.90;;;;;;5050525;28;20843;-64
2023/04/16 02:05:18;;;;;;;63.88;33.58;;;7.90;99.90;;;;;;5048515;28;20410;-64
2023/04/16 02:07:45;;;;;;;64.95;34.17;;;7.90;99.90;;;;;;5050736;28;20413;-66
2023/04/16 02:10:12;;;;;;;61.15;32.13;;;7.90;99.90;;;;;;5047356;28;20482;-63
2023/04/16 02:12:39;;;;;;;58.28;33.10;;;8.00;99.90;;;;;;5050627;28;20417;-64
2023/04/16 02:15:07;;;;;;;58.03;31.73;;;7.90;99.90;;;;;;5044266;28;20421;-65
2023/04/16 02:17:34;;;;;;;64.88;32.75;;;8.00;99.90;;;;;;5050846;28;20417;-64
2023/04/16 02:20:02;;;;;;;57.47;31.58;;;8.00;99.90;;;;;;5050692;28;20467;-65
2023/04/16 02:22:29;;;;;;;62.80;35.15;;;8.00;99.90;;;;;;5051805;28;20421;-65
2023/04/16 02:24:55;;;;;;;61.80;35.50;;;8.00;99.90;;;;;;5047002;28;20417;-65
2023/04/16 02:27:22;;;;;;;63.53;36.03;;;7.90;99.90;;;;;;5050897;28;21090;-65
2023/04/16 02:29:50;;;;;;;68.20;37.10;;;7.80;99.90;;;;;;5046201;28;20477;-65
2023/04/16 02:32:17;;;;;;;67.93;36.97;;;7.80;99.90;;;;;;5051043;28;20565;-65
2023/04/16 02:34:43;;;;;;;58.10;33.22;;;8.00;99.90;;;;;;5050621;28;20876;-65
2023/04/16 02:37:10;;;;;;;63.92;35.13;;;8.00;99.90;;;;;;5050629;28;20417;-65
2023/04/16 02:39:37;;;;;;;65.65;35.85;;;7.90;99.90;;;;;;5046127;28;20421;-64
2023/04/16 02:42:03;;;;;;;61.97;34.47;;;7.80;99.90;;;;;;5050696;28;20413;-64
2023/04/16 02:44:30;;;;;;;58.77;32.87;;;7.90;99.90;;;;;;5046569;28;20427;-65
2023/04/16 02:46:58;;;;;;;59.88;33.33;;;7.90;99.90;;;;;;5051218;28;20421;-64
2023/04/16 02:49:24;;;;;;;;;;;8.00;99.90;;;;;;5051577;28;20421;-65
2023/04/16 02:51:51;;;;;;;;;;;8.10;99.90;;;;;;5049769;28;25175;-64
2023/04/16 02:54:17;;;;;;;;;;;8.10;99.90;;;;;;5049425;28;25079;-65
2023/04/16 02:56:44;;;;;;;;;;;8.20;99.90;;;;;;5051685;28;19924;-66
2023/04/16 02:59:10;;;;;;;;;;;8.00;99.90;;;;;;5049824;28;20429;-65
2023/04/16 03:01:37;;;;;;;;;;;8.00;99.90;;;;;;5048601;28;20391;-64
2023/04/16 03:04:05;;;;;;;;;;;8.10;99.90;;;;;;5051642;28;19921;-65
2023/04/16 03:06:31;;;;;;;;;;;8.10;99.90;;;;;;5051812;28;19921;-65
2023/04/16 03:08:58;;;;;;;;;;;8.10;99.90;;;;;;5052223;28;19921;-65
2023/04/16 03:11:25;;;;;;;;;;;8.10;99.90;;;;;;5048748;28;19921;-66
2023/04/16 03:13:51;;;;;;;;;;;8.00;99.90;;;;;;5051940;28;20334;-63
2023/04/16 03:16:18;;;;;;;;;;;8.10;99.90;;;;;;5047997;28;19987;-66
2023/04/16 03:18:44;;;;;;;56.88;33.58;;;8.20;99.90;;;;;;5050150;28;20473;-65
2023/04/16 03:21:12;;;;;;;;;;;8.20;99.90;;;;;;5050876;28;20405;-65
2023/04/16 03:23:38;;;;;;;;;;;8.20;99.90;;;;;;5051722;28;19924;-65
2023/04/16 03:26:05;;;;;;;;;;;8.30;99.90;;;;;;5048467;28;19920;-65
2023/04/16 03:28:31;;;;;;;;;;;8.40;99.90;;;;;;5051793;28;19920;-63
2023/04/16 03:30:58;;;;;;;;;;;8.40;99.90;;;;;;5047466;28;20371;-64
2023/04/16 03:33:25;;;;;;;;;;;8.50;99.90;;;;;;5051875;28;19921;-65
2023/04/16 03:35:55;;;;;;;;;;;8.50;99.90;;;;;;5052373;28;19974;-65
2023/04/16 03:38:23;;;;;;;;;;;8.50;99.90;;;;;;5051916;28;19921;-65
2023/04/16 03:40:49;;;;;;;;;;;8.40;99.90;;;;;;5045813;28;19950;-66
2023/04/16 03:43:15;;;;;;;;;;;8.40;99.90;;;;;;5051030;28;19925;-64
2023/04/16 03:45:43;;;;;;;;;;;8.40;99.90;;;;;;5043756;28;19921;-64
2023/04/16 03:48:10;;;;;;;;;;;8.30;99.90;;;;;;5051761;28;19920;-65
2023/04/16 03:50:36;;;;;;;;;;;8.30;99.90;;;;;;5051769;28;19921;-65
2023/04/16 03:53:03;;;;;;;;;;;8.40;99.90;;;;;;5048264;28;19928;-66
2023/04/16 03:55:30;;;;;;;;;;;8.40;99.90;;;;;;5051475;28;20357;-65
2023/04/16 03:57:57;;;;;;;;;;;8.40;99.90;;;;;;5052637;28;19978;-65
2023/04/16 04:00:23;;;;;;;;;;;8.30;99.90;;;;;;5048154;28;20743;-65
2023/04/16 04:02:50;;;;;;;;;;;8.40;99.90;;;;;;5052991;28;19921;-65
2023/04/16 04:05:16;;;;;;;;;;;8.40;99.90;;;;;;5047826;28;19979;-64
2023/04/16 04:07:43;;;;;;;;;;;8.30;99.90;;;;;;5051617;28;19970;-65
2023/04/16 04:10:10;;;;;;;64.65;33.67;;;8.40;99.90;;;;;;5045672;28;20900;-65
2023/04/16 04:12:38;;;;;;;65.05;35.47;;;8.40;99.90;;;;;;5049786;28;20444;-64
2023/04/16 04:15:06;;;;;;;67.93;34.78;;;8.30;99.90;;;;;;5047864;28;20982;-63
2023/04/16 04:17:32;;;;;;;66.05;35.13;;;8.40;99.90;;;;;;5049602;28;20401;-65
2023/04/16 04:19:59;;;;;;;65.65;36.70;;;8.40;99.90;;;;;;5053457;28;20487;-65
2023/04/16 04:22:26;;;;;;;66.07;36.90;;;8.30;99.90;;;;;;5052997;28;20531;-64
2023/04/16 04:24:52;;;;;;;68.47;35.47;;;8.30;99.90;;;;;;5048434;28;20418;-65
2023/04/16 04:27:19;;;;;;;66.50;35.75;;;8.30;99.90;;;;;;5052632;28;20892;-64
2023/04/16 04:29:47;;;;;;;65.93;35.28;;;8.40;99.90;;;;;;5045152;28;20465;-65
2023/04/16 04:32:14;;;;;;;67.57;35.88;;;8.30;99.90;;;;;;5053033;28;20429;-65
2023/04/16 04:34:40;;;;;;;66.97;36.22;;;8.40;99.90;;;;;;5052924;28;20895;-66
2023/04/16 04:37:07;;;;;;;69.18;35.38;;;8.40;99.90;;;;;;5052933;28;20409;-65
2023/04/16 04:39:33;;;;;;;63.00;35.05;;;8.50;99.90;;;;;;5048332;28;20419;-64
2023/04/16 04:42:01;;;;;;;69.18;35.10;;;8.40;99.90;;;;;;5049668;28;20459;-65
2023/04/16 04:44:28;;;;;;;72.03;36.83;;;8.30;99.90;;;;;;5049499;28;20427;-65
2023/04/16 04:46:56;;;;;;;66.47;35.77;;;8.40;99.90;;;;;;5051951;28;20911;-65
2023/04/16 04:49:23;;;;;;;67.13;36.75;;;8.40;99.90;;;;;;5052899;28;20519;-66
2023/04/16 04:51:49;;;;;;;74.15;39.38;;;8.50;99.90;;;;;;5048236;28;20483;-65
2023/04/16 04:54:16;;;;;;;71.65;39.42;;;8.50;99.90;;;;;;5051816;28;20448;-65
2023/04/16 04:56:44;;;;;;;70.00;37.50;;;8.50;99.90;;;;;;5050595;28;20888;-65
2023/04/16 04:59:11;;;;;;;69.40;37.63;;;8.50;99.90;;;;;;5050750;28;20417;-65
2023/04/16 05:01:38;;;;;;;65.82;35.00;;;8.50;99.90;;;;;;5050009;28;20467;-66
2023/04/16 05:04:06;;;;;;;60.88;33.47;;;8.60;99.90;;;;;;5052277;28;20471;-64
2023/04/16 05:06:32;;;;;;;60.20;33.17;;;8.50;99.90;;;;;;5052279;28;20469;-65
2023/04/16 05:08:59;;;;;;;58.58;33.25;;;8.50;99.90;;;;;;5051770;28;20807;-64
2023/04/16 05:11:26;;;;;;;60.22;33.40;;;8.50;99.90;;;;;;5048331;28;20429;-65
2023/04/16 05:13:52;;;;;;;61.95;33.42;;;8.50;99.90;;;;;;5052619;28;20413;-64
2023/04/16 05:16:19;;;;;;;62.07;33.20;;;8.50;99.90;;;;;;5047748;28;20467;-65
2023/04/16 05:18:45;;;;;;;55.97;33.67;;;8.50;99.90;;;;;;5052365;28;20409;-64
2023/04/16 05:21:13;;;;;;;56.15;32.67;;;8.60;99.90;;;;;;5052218;28;20486;-65
2023/04/16 05:23:40;;;;;;;62.83;34.35;;;8.50;99.90;;;;;;5051966;28;20421;-65
2023/04/16 05:26:07;;;;;;;60.03;34.15;;;8.50;99.90;;;;;;5048311;28;20418;-63
2023/04/16 05:28:33;;;;;;;63.35;35.35;;;8.50;99.90;;;;;;5051784;28;20413;-64
2023/04/16 05:31:00;;;;;;;63.53;34.70;;;8.40;99.90;;;;;;5051380;28;20519;-64
2023/04/16 05:33:26;;;;;;;63.00;36.08;;;8.40;99.90;;;;;;5048113;28;20483;-64
2023/04/16 05:35:53;;;;;;;59.00;33.80;;;8.40;99.90;;;;;;5051574;28;20457;-63
2023/04/16 05:38:21;;;;;;;;;;;8.50;99.90;;;;;;5054337;28;20889;-64
2023/04/16 05:40:47;;;;;;;;;;;8.40;99.90;;;;;;5052796;28;20416;-64
2023/04/16 05:43:14;;;;;;;;;;;8.50;99.90;;;;;;5049109;28;19974;-64
2023/04/16 05:45:40;;;;;;;;;;;8.40;99.90;;;;;;5049556;28;19975;-64
2023/04/16 05:48:07;;;;;;;;;;;8.50;99.90;;;;;;5052877;28;19927;-64
2023/04/16 05:50:34;;;;;;;;;;;8.60;99.90;;;;;;5053448;28;19927;-63
2023/04/16 05:53:01;;;;;;;;;;;8.50;99.90;;;;;;5053180;28;19927;-65
2023/04/16 05:55:28;;;;;;;;;;;8.60;99.90;;;;;;5051196;28;20441;-65
2023/04/16 05:57:55;;;;;;;;;;;8.60;99.90;;;;;;5053775;28;19925;-66
2023/04/16 06:00:21;;;;;;;;;;;8.60;99.90;;;;;;5048258;28;19921;-64
2023/04/16 06:02:48;;;;;;;;;;;8.60;99.90;;;;;;5052737;28;20436;-65
2023/04/16 06:05:14;;;;;;;;;;;8.50;99.90;;;;;;5053082;28;25077;-65
2023/04/16 06:07:41;;;;;;;;;;;8.60;99.90;;;;;;5052707;28;20819;-62
2023/04/16 06:10:08;;;;;;;;;;;8.60;99.90;;;;;;5048540;28;19920;-61
2023/04/16 06:12:36;;;;;;;;;;;8.60;99.90;;;;;;5052642;28;20433;-65
2023/04/16 06:15:02;;;;;;;;;;;8.60;99.90;;;;;;5048200;28;19921;-65
2023/04/16 06:17:29;;;;;;;;;;;8.50;99.90;;;;;;5052599;28;19928;-65
2023/04/16 06:19:55;;;;;;;;;;;8.50;99.90;;;;;;5052801;28;19974;-64
2023/04/16 06:22:21;;;;;;;;;;;8.60;99.90;;;;;;5052853;28;19966;-64
2023/04/16 06:24:48;;;;;;;;;;;8.60;99.90;;;;;;5047777;28;20497;-65
2023/04/16 06:27:14;;;;;;;;;;;8.60;99.90;;;;;;5052390;28;19921;-62
2023/04/16 06:29:42;;;;;;;;;;;8.60;99.90;;;;;;5048342;28;19967;-64
2023/04/16 06:32:09;;;;;;;;;;;8.70;99.90;;;;;;5052650;28;19924;-65
2023/04/16 06:34:35;;;;;;;;;;;8.70;99.90;;;;;;5052798;28;20322;-66
2023/04/16 06:37:02;;;;;;;;;;;8.70;99.90;;;;;;5052298;28;19920;-66
2023/04/16 06:39:28;;;;;;;;;;;8.80;99.90;;;;;;5048299;28;19925;-64
2023/04/16 06:41:55;;;;;;;;;;;8.80;99.90;;;;;;5052319;28;19975;-63
2023/04/16 06:44:22;;;;;;;;;;;8.70;99.90;;;;;;5052923;28;20002;-65
2023/04/16 06:46:50;;;;;;;;;;;8.80;99.90;;;;;;5047938;28;19924;-62
2023/04/16 06:49:16;;;;;;;;;;;8.80;99.90;;;;;;5052265;28;20457;-62
2023/04/16 06:51:43;;;;;;;;;;;8.90;99.90;;;;;;5052368;28;19921;-64
2023/04/16 06:54:09;;;;;;;;;;;9.00;99.90;;;;;;5052198;28;19920;-64
2023/04/16 06:56:36;;;;;;;;;;;8.90;99.90;;;;;;5049087;28;19971;-66
2023/04/16 06:59:03;;;;;;;;;;;8.90;99.90;;;;;;5051472;28;19931;-65
2023/04/16 07:01:30;;;;;;;;;;;8.80;99.90;;;;;;5047944;28;20098;-64
2023/04/16 07:03:58;;;;;;;;;;;8.90;99.90;;;;;;5052459;28;19920;-63
2023/04/16 07:06:25;;;;;;;;;;;8.90;99.90;;;;;;5052093;28;19972;-62
2023/04/16 07:08:52;;;;;;;;;;;8.80;99.90;;;;;;5053216;28;19921;-64
2023/04/16 07:11:19;;;;;;;;;;;8.90;99.90;;;;;;5052049;28;20297;-64
2023/04/16 07:13:46;;;;;;;;;;;8.90;99.90;;;;;;5055658;28;19928;-63
2023/04/16 07:16:12;;;;;;;;;;;8.90;99.90;;;;;;5052997;28;20280;-64
2023/04/16 07:18:39;;;;;;;;;;;9.00;99.90;;;;;;5046410;28;19924;-64
2023/04/16 07:21:07;;;;;;;;;;;8.90;99.90;;;;;;5052884;28;19943;-63
2023/04/16 07:23:33;;;;;;;;;;;9.00;99.90;;;;;;5052067;28;19943;-62
2023/04/16 07:26:00;;;;;;;;;;;9.00;99.90;;;;;;5051230;28;19921;-63
2023/04/16 07:28:26;;;;;;;;;;;9.00;99.90;;;;;;5049585;28;19922;-64
2023/04/16 07:30:53;;;;;;;;;;;9.10;99.90;;;;;;5047968;28;19921;-64
2023/04/16 07:33:19;;;;;;;;;;;9.10;99.90;;;;;;5051805;28;19921;-64
2023/04/16 07:35:46;;;;;;;;;;;9.00;99.90;;;;;;5052353;28;20337;-64
2023/04/16 07:38:15;;;;;;;;;;;9.10;99.90;;;;;;5051470;28;19972;-63
2023/04/16 07:40:41;;;;;;;;;;;9.10;99.90;;;;;;5047503;28;20011;-64
2023/04/16 07:43:08;;;;;;;;;;;9.10;99.90;;;;;;5052110;28;19979;-62
2023/04/16 07:45:34;;;;;;;;;;;9.20;99.90;;;;;;5047477;28;20056;-63
2023/04/16 07:48:01;;;;;;;;;;;9.20;99.90;;;;;;5046953;28;20287;-63
2023/04/16 07:50:27;;;;;;;;;;;9.30;99.90;;;;;;5055378;28;19927;-64
2023/04/16 07:52:54;;;;;;;;;;;9.40;99.90;;;;;;5055397;28;20341;-64
2023/04/16 07:55:22;;;;;;;;;;;9.50;99.90;;;;;;5054942;28;19920;-63
2023/04/16 07:57:48;;;;;;;;;;;9.60;99.90;;;;;;5051407;28;19920;-62
2023/04/16 08:00:15;;;;;;;;;;;9.60;99.90;;;;;;5050952;28;20453;-64
2023/04/16 08:02:41;;;;;;;;;;;9.50;99.90;;;;;;5055332;28;20444;-64
2023/04/16 08:05:08;;;;;;;;;;;9.70;99.90;;;;;;5055642;28;19978;-65
2023/04/16 08:07:34;;;;;;;;;;;9.70;99.90;;;;;;5055298;28;20287;-63
2023/04/16 08:10:01;;;;;;;;;;;9.70;99.90;;;;;;5050712;28;20020;-64
2023/04/16 08:12:29;;;;;;;;;;;9.70;99.90;;;;;;5055222;28;19925;-64
2023/04/16 08:14:56;;;;;;;;;;;9.80;99.90;;;;;;5051021;28;19925;-64
2023/04/16 08:17:22;;;;;;;;;;;9.80;99.90;;;;;;5054808;28;19970;-64
2023/04/16 08:19:48;;;;;;;;;;;9.90;99.90;;;;;;5055121;28;19986;-64
2023/04/16 08:22:15;;;;;;;;;;;9.80;99.90;;;;;;5055187;28;19925;-63
2023/04/16 08:24:42;;;;;;;;;;;9.80;99.90;;;;;;5051164;28;20011;-63
2023/04/16 08:27:09;;;;;;;;;;;9.80;99.90;;;;;;5054435;28;19920;-64
2023/04/16 08:29:37;;;;;;;;;;;9.90;99.90;;;;;;5053134;28;19984;-65
2023/04/16 08:32:04;;;;;;;;;;;9.90;99.90;;;;;;5053796;28;19964;-64
2023/04/16 08:34:30;;;;;;;;;;;10.00;99.90;;;;;;5055123;28;19927;-64
2023/04/16 08:36:56;;;;;;;;;;;10.00;99.90;;;;;;5054458;28;19920;-64
2023/04/16 08:39:23;;;;;;;;;;;9.90;99.90;;;;;;5053319;28;19967;-63
2023/04/16 08:41:50;;;;;;;;;;;9.80;99.90;;;;;;5051929;28;19924;-64
2023/04/16 08:44:20;;;;;;;;;;;9.90;99.90;;;;;;5053755;28;20039;-63
2023/04/16 08:46:48;;;;;;;;;;;10.00;99.90;;;;;;5051327;28;20406;-64
2023/04/16 08:49:17;;;;;;;31.40;22.92;;;10.10;99.90;;;;;;5054032;28;20301;-64
2023/04/16 08:51:45;;;;;;;;;;;9.90;99.90;;;;;;5050274;28;20807;-64
2023/04/16 08:54:18;;;;;;;32.00;24.50;;;10.10;99.90;;;;;;5051886;28;20782;-63
2023/04/16 08:56:45;;;;;;;33.55;23.75;;;10.20;99.90;;;;;;5049243;28;20884;-63
2023/04/16 08:59:11;;;;;;;32.83;23.80;;;10.40;99.90;;;;;;5051734;28;20413;-65
2023/04/16 09:01:40;;;;;;;;;;;10.20;99.90;;;;;;5049933;28;20417;-64
2023/04/16 09:04:08;;;;;;;;;;;10.00;99.90;;;;;;5041181;28;19956;-64
2023/04/16 09:06:36;;;;;;;;;;;10.10;99.90;;;;;;5049942;28;19921;-64
2023/04/16 09:09:04;;;;;;;;;;;10.20;99.90;;;;;;5053502;28;19986;-63
2023/04/16 09:11:30;;;;;;;;;;;10.40;99.90;;;;;;5052814;28;19924;-63
2023/04/16 09:13:57;;;;;;;;;;;10.40;99.90;;;;;;5053527;28;19921;-64
2023/04/16 09:16:25;;;;;;;;;;;10.50;99.90;;;;;;5049418;28;19924;-64
2023/04/16 09:18:51;;;;;;;;;;;10.60;99.90;;;;;;5049791;28;19943;-64
2023/04/16 09:21:19;;;;;;;;;;;10.60;99.90;;;;;;5050322;28;19932;-64
2023/04/16 09:23:46;;;;;;;;;;;10.60;99.90;;;;;;5053407;28;19920;-65
2023/04/16 09:26:13;;;;;;;;;;;10.60;99.90;;;;;;5048758;28;19979;-66
2023/04/16 09:28:40;;;;;;;;;;;10.70;99.90;;;;;;5053257;28;20379;-64
2023/04/16 09:31:07;;;;;;;;;;;10.40;99.90;;;;;;5048608;28;19920;-62
2023/04/16 09:33:34;;;;;;;;;;;10.40;99.90;;;;;;5047468;28;19927;-63
2023/04/16 09:36:01;;;;;;;;;;;10.50;99.90;;;;;;5053260;28;20281;-62
2023/04/16 09:38:45;;;;;;;;;;;12.50;99.90;;;;;;5053358;28;19921;-62
2023/04/16 09:41:11;;;;;;;;;;;10.50;99.90;;;;;;5053021;28;20346;-62
2023/04/16 09:43:38;;;;;;;;;;;10.40;99.90;;;;;;5051859;28;19948;-63
2023/04/16 09:46:05;;;;;;;;;;;10.30;99.90;;;;;;5053537;28;19987;-63
2023/04/16 09:48:32;;;;;;;;;;;10.30;99.90;;;;;;5055705;28;19943;-64
2023/04/16 09:50:59;;;;;;;;;;;10.40;99.90;;;;;;5055658;28;19920;-64
2023/04/16 09:53:26;;;;;;;;;;;10.30;99.90;;;;;;5054371;28;19978;-62
2023/04/16 09:55:55;;;;;;;;;;;10.60;99.90;;;;;;5051389;28;20345;-60
2023/04/16 09:58:23;;;;;;;;;;;10.70;99.90;;;;;;5053957;28;19970;-65
2023/04/16 10:00:49;;;;;;;;;;;10.70;99.90;;;;;;5048841;28;19927;-62
2023/04/16 10:03:16;;;;;;;;;;;10.70;99.90;;;;;;5053029;28;19921;-62
2023/04/16 10:05:42;;;;;;;;;;;10.70;99.90;;;;;;5052688;28;20011;-63
2023/04/16 10:08:12;;;;;;;;;;;10.90;99.90;;;;;;5052490;28;20002;-63
2023/04/16 10:10:39;;;;;;;;;;;11.10;99.90;;;;;;5047641;28;19924;-63
2023/04/16 10:13:07;;;;;;;;;;;10.80;99.90;;;;;;5047219;28;20366;-63
2023/04/16 10:15:34;;;;;;;;;;;10.90;99.90;;;;;;5048655;28;20374;-64
2023/04/16 10:18:01;;;;;;;;;;;11.10;99.90;;;;;;5052945;28;19960;-62
2023/04/16 10:20:27;;;;;;;;;;;11.20;99.90;;;;;;5051313;28;19967;-63
2023/04/16 10:22:54;;;;;;;;;;;11.10;99.90;;;;;;5052069;28;19921;-62
2023/04/16 10:25:21;;;;;;;;;;;10.90;99.90;;;;;;5048719;28;19920;-62
2023/04/16 10:27:48;;;;;;;;;;;11.00;99.90;;;;;;5052020;28;19920;-62
2023/04/16 10:30:17;;;;;;;;;;;11.10;99.90;;;;;;5045668;28;20337;-63
2023/04/16 10:32:44;;;;;;;;;;;11.30;99.90;;;;;;5048133;28;19921;-62
2023/04/16 10:35:14;;;;;;;;;;;11.20;99.90;;;;;;5049669;28;19936;-63
2023/04/16 10:37:43;;;;;;;;;;;11.20;99.90;;;;;;5046557;28;20303;-63
2023/04/16 10:40:23;;;;;;;;;;;11.10;99.90;;;;;;5045244;28;19931;-63
2023/04/16 10:42:53;;;;;;;;;;;11.40;99.90;;;;;;5049322;28;19920;-63
2023/04/16 10:45:25;;;;;;;;;;;11.60;92.60;;;;;;5045547;28;19921;-63
2023/04/16 10:47:55;;;;;;;;;;;11.80;79.90;;;;;;5051827;28;19947;-64
2023/04/16 10:50:21;;;;;;;;;;;12.10;36.00;;;;;;5052897;28;19920;-63
2023/04/16 10:52:48;;;;;;;;;;;12.40;41.50;;;;;;5053383;28;19921;-63
2023/04/16 10:55:16;;;;;;;;;;;12.30;33.10;;;;;;5049567;28;19951;-66
2023/04/16 10:57:43;;;;;;;;;;;12.50;1.00;;;;;;5051299;28;19921;-61
2023/04/16 11:00:22;;;;;;;;;;;11.70;47.00;;;;;;5047218;28;20375;-62
2023/04/16 11:02:52;;;;;;;;;;;11.80;63.60;;;;;;5048680;28;19935;-61
2023/04/16 11:05:21;;;;;;;;;;;11.90;33.50;;;;;;5048198;28;19921;-61
2023/04/16 11:07:48;;;;;;;;;;;12.00;26.80;;;;;;5053784;28;19932;-62
2023/04/16 11:10:14;;;;;;;;;;;12.40;1.00;;;;;;5052000;28;19970;-63
2023/04/16 11:12:41;;;;;;;;;;;12.80;84.30;;;;;;5050979;28;19928;-62
2023/04/16 11:15:09;;;;;;;;;;;12.60;1.00;;;;;;5043093;28;19927;-64
2023/04/16 11:17:38;;;;;;;;;;;12.50;1.00;;;;;;5047431;28;20414;-65
2023/04/16 11:20:05;;;;;;;;;;;12.70;1.00;;;;;;5051786;28;20003;-65
2023/04/16 11:22:34;;;;;;;;;;;12.50;1.00;;;;;;5052489;28;19967;-63
2023/04/16 11:25:01;;;;;;;;;;;12.50;1.00;;;;;;5051207;28;19936;-63
2023/04/16 11:27:29;;;;;;;;;;;12.40;1.00;;;;;;5055586;28;19927;-66
2023/04/16 11:29:56;;;;;;;;;;;12.40;1.00;;;;;;5050758;28;19967;-67
2023/04/16 11:32:23;;;;;;;;;;;12.60;1.00;;;;;;5055674;28;19920;-66
2023/04/16 11:34:51;;;;;;;;;;;12.50;1.00;;;;;;5055303;28;19921;-68
2023/04/16 11:37:19;;;;;;;;;;;12.70;1.00;;;;;;5055428;28;19936;-67
2023/04/16 11:39:49;;;;;;;;;;;12.30;1.00;;;;;;5050783;28;19924;-66
2023/04/16 11:42:20;;;;;;;;;;;12.30;1.00;;;;;;5055176;28;19921;-66
2023/04/16 11:44:46;;;;;;;;;;;12.40;1.00;;;;;;5047040;28;19931;-66
2023/04/16 11:47:13;;;;;;;;;;;12.70;1.00;;;;;;5055128;28;19920;-66
2023/04/16 11:49:39;;;;;;;;;;;12.80;1.00;;;;;;5055396;28;19927;-66
2023/04/16 11:52:07;;;;;;;;;;;12.60;1.00;;;;;;5050753;28;19958;-66
2023/04/16 11:54:35;;;;;;;;;;;12.50;1.00;;;;;;5054655;28;19920;-66
2023/04/16 11:57:03;;;;;;;;;;;12.30;1.00;;;;;;5053656;28;19921;-65
2023/04/16 11:59:29;;;;;;;;;;;12.30;1.00;;;;;;5051249;28;20295;-66
2023/04/16 12:01:56;;;;;;;;;;;12.40;1.00;;;;;;5054687;28;19970;-66
2023/04/16 12:04:24;;;;;;;;;;;12.20;1.00;;;;;;5051709;28;20321;-66
2023/04/16 12:07:08;;;;;;;;;;;12.30;1.00;;;;;;5054754;28;19929;-66
2023/04/16 12:09:35;;;;;;;;;;;12.40;1.00;;;;;;5051529;28;19983;-66
2023/04/16 12:12:01;;;;;;;;;;;12.40;1.00;;;;;;5055038;28;19924;-66
2023/04/16 12:14:28;;;;;;;;;;;12.60;1.00;;;;;;5050893;28;19927;-67
2023/04/16 12:16:55;;;;;;;;;;;12.50;1.00;;;;;;5054640;28;20283;-67
2023/04/16 12:19:21;;;;;;;;;;;12.60;1.00;;;;;;5054629;28;19970;-66
2023/04/16 12:21:48;;;;;;;;;;;12.80;1.00;;;;;;5054899;28;19996;-66
2023/04/16 12:24:19;;;;;;;;;;;12.70;1.00;;;;;;5053860;28;20330;-66
2023/04/16 12:26:47;;;;;;;;;;;12.80;1.00;;;;;;5052848;28;19921;-66
2023/04/16 12:29:14;;;;;;;;;;;12.70;1.00;;;;;;5049983;28;20472;-66
2023/04/16 12:31:41;;;;;;;;;;;12.80;1.00;;;;;;5052700;28;19924;-65
2023/04/16 12:34:09;;;;;;;;;;;12.50;1.00;;;;;;5053278;28;19921;-66
2023/04/16 12:36:35;;;;;;;;;;;12.50;1.00;;;;;;5053893;28;20429;-65
2023/04/16 12:39:02;;;;;;;;;;;12.30;1.00;;;;;;5054467;28;19983;-66
2023/04/16 12:41:30;;;;;;;;;;;12.30;1.00;;;;;;5051066;28;20015;-65
2023/04/16 12:44:03;;;;;;;;;;;12.10;1.00;;;;;;5049555;28;20518;-61
2023/04/16 12:46:29;;;;;;;;;;;11.90;1.00;;;;;;5043871;28;19920;-60
2023/04/16 12:48:56;;;;;;;;;;;12.00;1.00;;;;;;5052117;28;20061;-60
2023/04/16 12:51:23;;;;;;;;;;;12.30;1.00;;;;;;5053988;28;19925;-61
2023/04/16 12:53:49;;;;;;;;;;;12.70;1.00;;;;;;5053793;28;19974;-61
2023/04/16 12:56:16;;;;;;;;;;;12.80;1.00;;;;;;5050285;28;19921;-60
2023/04/16 12:58:44;;;;;;;;;;;13.10;1.00;;;;;;5053745;28;20391;-56
2023/04/16 13:01:11;;;;;;;;;;;13.20;1.00;;;;;;5044712;28;19967;-57
2023/04/16 13:03:38;;;;;;;;;;;13.50;1.00;;;;;;5050203;28;19933;-61
2023/04/16 13:06:04;;;;;;;;;;;13.70;53.70;;;;;;5046490;28;20401;-61
2023/04/16 13:08:31;;;;;;;;;;;13.70;1.00;;;;;;5053824;28;19972;-58
2023/04/16 13:10:57;;;;;;;;;;;13.50;99.90;;;;;;5048748;28;19966;-58
2023/04/16 13:13:24;;;;;;;;;;;13.50;1.00;;;;;;5053686;28;19920;-61
2023/04/16 13:15:52;;;;;;;;;;;13.30;99.90;;;;;;5059752;28;20338;-62
2023/04/16 13:18:18;;;;;;;;;;;13.40;98.90;;;;;;5054871;28;19954;-61
2023/04/16 13:20:44;;;;;;;;;;;13.20;1.00;;;;;;5052601;28;19966;-60
2023/04/16 13:23:11;;;;;;;;;;;13.10;99.90;;;;;;5052400;28;20507;-57
2023/04/16 13:25:38;;;;;;;;;;;13.00;82.50;;;;;;5046403;28;19924;-55
2023/04/16 13:28:04;;;;;;;;;;;12.70;99.90;;;;;;5052957;28;19966;-57
2023/04/16 13:30:32;;;;;;;;;;;12.80;99.90;;;;;;5044438;28;19946;-56
2023/04/16 13:33:00;;;;;;;;;;;12.70;1.00;;;;;;5053084;28;19925;-55
2023/04/16 13:35:27;;;;;;;;;;;12.90;99.90;;;;;;5053010;28;20357;-56
2023/04/16 13:37:53;;;;;;;;;;;13.00;99.90;;;;;;5053855;28;19924;-58
2023/04/16 13:40:20;;;;;;;;;;;13.00;99.90;;;;;;5044555;28;19928;-59
2023/04/16 13:42:46;;;;;;;;;;;13.20;99.90;;;;;;5057442;28;19925;-58
2023/04/16 13:45:13;;;;;;;;;;;12.90;1.00;;;;;;5052605;28;19921;-58